Time;durP1;ratioP1;P1;durP2;ratioP2;P2;SDS_P1;SDS_P2;PMS_P1;PMS_P2;Temp;Humidity;BMP_temperature;BMP_pressure;BME280_temperature;BME280_humidity;BME280_pressure;Samples;Min_cycle;Max_cycle;Signal;HPM_P1;HPM_P2
2021/12/22 00:00:18;;;;;;;50.53;26.42;;;1.20;99.90;;;;;;2098174;28;20115;-70
2021/12/22 00:01:22;;;;;;;50.03;26.92;;;1.20;99.90;;;;;;2098356;28;20032;-70
2021/12/22 00:02:24;;;;;;;48.67;26.02;;;1.20;99.90;;;;;;2097433;28;20074;-71
2021/12/22 00:03:25;;;;;;;51.08;27.13;;;1.20;99.90;;;;;;2097582;28;20557;-71
2021/12/22 00:04:26;;;;;;;54.00;27.15;;;1.20;99.90;;;;;;2098493;28;20457;-71
2021/12/22 00:05:30;;;;;;;49.08;26.83;;;1.20;99.90;;;;;;2098521;28;20479;-71
2021/12/22 00:06:33;;;;;;;52.58;27.15;;;1.20;99.90;;;;;;2098382;28;20107;-71
2021/12/22 00:07:34;;;;;;;54.35;26.38;;;1.20;99.90;;;;;;2098470;28;20575;-71
2021/12/22 00:08:34;;;;;;;48.33;25.85;;;1.30;99.90;;;;;;2097967;28;20083;-71
2021/12/22 00:09:35;;;;;;;51.20;26.77;;;1.30;99.90;;;;;;2098314;28;20441;-72
2021/12/22 00:10:36;;;;;;;49.50;26.45;;;1.30;99.90;;;;;;2098205;28;20032;-71
2021/12/22 00:11:36;;;;;;;52.78;26.58;;;1.30;99.90;;;;;;2098078;28;20461;-72
2021/12/22 00:12:37;;;;;;;51.83;27.27;;;1.30;99.90;;;;;;2098333;28;20032;-71
2021/12/22 00:13:41;;;;;;;50.92;27.20;;;1.30;99.90;;;;;;2098507;28;20037;-71
2021/12/22 00:14:42;;;;;;;51.13;26.52;;;1.20;99.90;;;;;;2099637;28;20055;-72
2021/12/22 00:15:42;;;;;;;49.70;26.05;;;1.20;99.90;;;;;;2100255;28;20090;-72
2021/12/22 00:16:43;;;;;;;47.88;25.95;;;1.20;99.90;;;;;;2100219;28;20028;-72
2021/12/22 00:17:44;;;;;;;47.67;26.13;;;1.30;99.90;;;;;;2098570;28;20107;-71
2021/12/22 00:18:47;;;;;;;50.92;25.85;;;1.30;99.90;;;;;;2098198;28;20013;-72
2021/12/22 00:19:48;;;;;;;45.92;24.85;;;1.30;99.90;;;;;;2098249;28;20033;-72
2021/12/22 00:20:48;;;;;;;47.72;26.02;;;1.30;99.90;;;;;;2097873;28;20028;-71
2021/12/22 00:21:49;;;;;;;53.15;27.83;;;1.30;99.90;;;;;;2097260;28;20032;-72
2021/12/22 00:22:50;;;;;;;50.40;26.67;;;1.30;99.90;;;;;;2098276;28;20032;-72
2021/12/22 00:23:51;;;;;;;49.95;25.83;;;1.20;99.90;;;;;;2097433;28;20025;-71
2021/12/22 00:24:52;;;;;;;47.50;25.38;;;1.30;99.90;;;;;;2097515;28;20030;-71
2021/12/22 00:25:53;;;;;;;47.35;25.85;;;1.30;99.90;;;;;;2097935;28;20064;-71
2021/12/22 00:26:54;;;;;;;47.15;24.55;;;1.30;99.90;;;;;;2097231;28;20585;-72
2021/12/22 00:27:58;;;;;;;45.97;25.10;;;1.30;99.90;;;;;;2096968;28;20025;-72
2021/12/22 00:28:58;;;;;;;46.22;24.50;;;1.30;99.90;;;;;;2097341;28;20036;-71
2021/12/22 00:29:59;;;;;;;46.30;24.95;;;1.30;99.90;;;;;;2097573;28;20111;-71
2021/12/22 00:31:00;;;;;;;42.15;24.38;;;1.30;99.90;;;;;;2098037;28;20046;-71
2021/12/22 00:32:11;;;;;;;49.03;26.00;;;1.30;99.90;;;;;;2097125;28;20036;-72
2021/12/22 00:33:13;;;;;;;45.45;24.77;;;1.30;99.90;;;;;;2097631;28;20013;-71
2021/12/22 00:34:17;;;;;;;45.38;24.38;;;1.20;99.90;;;;;;2098049;28;20467;-71
2021/12/22 00:35:21;;;;;;;47.00;24.55;;;1.30;99.90;;;;;;2097320;28;20044;-72
2021/12/22 00:36:24;;;;;;;50.78;25.35;;;1.30;99.90;;;;;;2089352;28;20025;-72
2021/12/22 00:37:28;;;;;;;43.78;24.73;;;1.30;99.90;;;;;;2089130;28;20393;-72
2021/12/22 00:38:28;;;;;;;48.03;25.10;;;1.30;99.90;;;;;;2089087;28;20037;-72
2021/12/22 00:39:29;;;;;;;50.50;26.02;;;1.30;99.90;;;;;;2098021;28;20125;-72
2021/12/22 00:40:30;;;;;;;49.35;25.65;;;1.30;99.90;;;;;;2097824;28;20036;-72
2021/12/22 00:41:30;;;;;;;50.63;26.35;;;1.30;99.90;;;;;;2097761;28;20033;-72
2021/12/22 00:42:31;;;;;;;50.13;25.75;;;1.30;99.90;;;;;;2097508;28;20032;-72
2021/12/22 00:43:31;;;;;;;47.03;25.15;;;1.30;99.90;;;;;;2097388;28;20039;-72
2021/12/22 00:44:32;;;;;;;48.05;24.58;;;1.30;99.90;;;;;;2098020;28;20025;-71
2021/12/22 00:45:35;;;;;;;50.88;26.13;;;1.30;99.90;;;;;;2097859;28;20032;-71
2021/12/22 00:46:35;;;;;;;50.67;25.60;;;1.30;99.90;;;;;;2097201;28;20136;-71
2021/12/22 00:47:36;;;;;;;48.05;24.90;;;1.30;99.90;;;;;;2097296;28;20366;-71
2021/12/22 00:48:37;;;;;;;46.25;24.20;;;1.30;99.90;;;;;;2097292;28;20044;-71
2021/12/22 00:49:37;;;;;;;44.60;23.38;;;1.30;99.90;;;;;;2089001;28;20040;-71
2021/12/22 00:50:39;;;;;;;42.58;23.20;;;1.30;99.90;;;;;;2097213;28;20091;-71
2021/12/22 00:51:40;;;;;;;41.88;22.20;;;1.30;99.90;;;;;;2097456;28;20686;-71
2021/12/22 00:52:40;;;;;;;42.55;23.13;;;1.30;99.90;;;;;;2097782;28;20033;-71
2021/12/22 00:53:41;;;;;;;42.10;22.38;;;1.30;99.90;;;;;;2097090;28;20083;-71
2021/12/22 00:54:42;;;;;;;43.10;22.60;;;1.30;99.90;;;;;;2097287;28;20738;-71
2021/12/22 00:55:43;;;;;;;43.25;23.08;;;1.30;99.90;;;;;;2097740;28;20484;-71
2021/12/22 00:56:43;;;;;;;43.72;23.42;;;1.30;99.90;;;;;;2097101;28;20483;-71
2021/12/22 00:57:45;;;;;;;41.72;23.65;;;1.30;99.90;;;;;;2096674;28;20583;-71
2021/12/22 00:58:46;;;;;;;42.72;23.02;;;1.30;99.90;;;;;;2097007;28;20025;-71
2021/12/22 00:59:47;;;;;;;44.45;24.60;;;1.40;99.90;;;;;;2097218;28;20052;-71
2021/12/22 01:00:49;;;;;;;42.55;22.58;;;1.40;99.90;;;;;;2097685;28;20031;-71
2021/12/22 01:01:50;;;;;;;42.15;23.50;;;1.40;99.90;;;;;;2097431;28;20036;-71
2021/12/22 01:02:51;;;;;;;40.58;22.90;;;1.30;99.90;;;;;;2098008;28;20078;-72
2021/12/22 01:03:52;;;;;;;40.58;22.80;;;1.30;99.90;;;;;;2097996;28;20031;-72
2021/12/22 01:04:53;;;;;;;41.42;22.83;;;1.30;99.90;;;;;;2098038;28;20039;-72
2021/12/22 01:05:54;;;;;;;37.05;20.75;;;1.30;99.90;;;;;;2097960;28;20040;-71
2021/12/22 01:06:54;;;;;;;39.45;21.88;;;1.40;99.90;;;;;;2097108;28;20509;-72
2021/12/22 01:07:55;;;;;;;40.17;21.42;;;1.40;99.90;;;;;;2096898;28;20589;-72
2021/12/22 01:08:56;;;;;;;38.92;22.15;;;1.40;99.90;;;;;;2098008;28;20029;-71
2021/12/22 01:09:57;;;;;;;38.75;21.33;;;1.30;99.90;;;;;;2098078;28;20033;-72
2021/12/22 01:10:57;;;;;;;36.35;21.10;;;1.40;99.90;;;;;;2097480;28;20028;-72
2021/12/22 01:11:58;;;;;;;37.88;20.88;;;1.40;99.90;;;;;;2096973;28;20074;-72
2021/12/22 01:13:02;;;;;;;38.53;21.02;;;1.30;99.90;;;;;;2097983;28;20108;-71
2021/12/22 01:14:03;;;;;;;38.83;20.63;;;1.30;99.90;;;;;;2098000;28;20381;-71
2021/12/22 01:15:06;;;;;;;40.40;21.30;;;1.30;99.90;;;;;;2097296;28;20481;-71
2021/12/22 01:16:06;;;;;;;34.55;19.60;;;1.30;99.90;;;;;;2097453;28;20048;-70
2021/12/22 01:17:11;;;;;;;34.95;20.15;;;1.30;99.90;;;;;;2097314;28;20016;-72
2021/12/22 01:18:16;;;;;;;35.47;19.92;;;1.30;99.90;;;;;;2096864;28;20036;-73
2021/12/22 01:19:23;;;;;;;36.13;20.17;;;1.30;99.90;;;;;;2097381;28;20032;-71
2021/12/22 01:20:30;;;;;;;37.53;20.20;;;1.30;99.90;;;;;;2097466;28;20472;-73
2021/12/22 01:21:46;;;;;;;34.42;19.73;;;1.30;99.90;;;;;;2097429;28;20028;-71
2021/12/22 01:22:48;;;;;;;38.60;20.38;;;1.30;99.90;;;;;;2097834;28;20034;-71
2021/12/22 01:24:10;;;;;;;35.35;20.88;;;1.30;99.90;;;;;;2097954;28;20019;-71
2021/12/22 01:25:13;;;;;;;41.78;21.95;;;1.30;99.90;;;;;;2097233;28;20114;-71
2021/12/22 01:26:14;;;;;;;38.20;20.40;;;1.30;99.90;;;;;;2097257;28;20048;-73
2021/12/22 01:27:20;;;;;;;39.50;20.75;;;1.30;99.90;;;;;;2098103;28;20051;-73
2021/12/22 01:28:26;;;;;;;40.30;20.55;;;1.30;99.90;;;;;;2097529;28;20078;-73
2021/12/22 01:29:26;;;;;;;36.63;20.80;;;1.30;99.90;;;;;;2098039;28;20430;-71
2021/12/22 01:30:29;;;;;;;38.58;20.70;;;1.30;99.90;;;;;;2097848;28;20032;-72
2021/12/22 01:31:30;;;;;;;35.88;20.42;;;1.30;99.90;;;;;;2097679;28;20721;-71
2021/12/22 01:32:30;;;;;;;40.55;22.05;;;1.40;99.90;;;;;;2097192;28;20024;-71
2021/12/22 01:33:31;;;;;;;37.15;20.52;;;1.30;99.90;;;;;;2096969;28;20099;-70
2021/12/22 01:34:32;;;;;;;37.05;19.90;;;1.30;99.90;;;;;;2097105;28;20067;-72
2021/12/22 01:35:34;;;;;;;34.15;19.90;;;1.40;99.90;;;;;;2097243;28;20028;-72
2021/12/22 01:36:35;;;;;;;37.47;21.38;;;1.40;99.90;;;;;;2097735;28;20036;-72
2021/12/22 01:37:36;;;;;;;37.35;20.58;;;1.40;99.90;;;;;;2097674;28;20459;-72
2021/12/22 01:38:36;;;;;;;40.20;21.27;;;1.40;99.90;;;;;;2096981;28;20035;-72
2021/12/22 01:39:37;;;;;;;40.22;21.17;;;1.40;99.90;;;;;;2096888;28;20025;-71
2021/12/22 01:40:43;;;;;;;34.58;19.70;;;1.40;99.90;;;;;;2096938;28;20059;-72
2021/12/22 01:41:45;;;;;;;36.60;20.42;;;1.40;99.90;;;;;;2097270;28;20020;-72
2021/12/22 01:42:46;;;;;;;39.78;21.45;;;1.40;99.90;;;;;;2097925;28;20051;-72
2021/12/22 01:43:48;;;;;;;36.40;20.85;;;1.40;99.90;;;;;;2097719;28;20139;-72
2021/12/22 01:45:24;;;;;;;37.13;20.67;;;1.40;99.90;;;;;;2097624;28;20035;-72
2021/12/22 01:49:11;;;;;;;38.50;20.92;;;1.40;99.90;;;;;;2097258;28;20025;-72
2021/12/22 01:50:17;;;;;;;37.63;20.15;;;1.40;99.90;;;;;;2097722;28;20029;-72
2021/12/22 01:51:18;;;;;;;35.28;19.58;;;1.30;99.90;;;;;;2098092;28;20233;-72
2021/12/22 01:52:21;;;;;;;36.38;19.65;;;1.40;99.90;;;;;;2096915;28;20496;-72
2021/12/22 01:53:21;;;;;;;36.30;20.27;;;1.40;99.90;;;;;;2097249;28;20032;-72
2021/12/22 01:54:27;;;;;;;34.92;19.92;;;1.40;99.90;;;;;;2097846;28;20032;-72
2021/12/22 01:55:36;;;;;;;38.15;20.55;;;1.40;99.90;;;;;;2097892;28;20037;-71
2021/12/22 01:56:37;;;;;;;34.92;19.15;;;1.30;99.90;;;;;;2099496;28;20078;-71
2021/12/22 01:57:45;;;;;;;35.30;19.73;;;1.40;99.90;;;;;;2098338;28;20141;-72
2021/12/22 01:58:49;;;;;;;35.53;20.00;;;1.40;99.90;;;;;;2099834;28;20129;-71
2021/12/22 01:59:50;;;;;;;36.85;20.08;;;1.30;99.90;;;;;;2099514;28;20025;-71
2021/12/22 02:00:50;;;;;;;35.30;20.33;;;1.30;99.90;;;;;;2099076;28;20060;-73
2021/12/22 02:01:51;;;;;;;36.00;20.23;;;1.30;99.90;;;;;;2099558;28;20400;-73
2021/12/22 02:02:52;;;;;;;34.67;20.13;;;1.40;99.90;;;;;;2099046;28;20775;-71
2021/12/22 02:03:53;;;;;;;38.95;21.15;;;1.40;99.90;;;;;;2097902;28;20028;-72
2021/12/22 02:04:54;;;;;;;37.08;19.95;;;1.40;99.90;;;;;;2097480;28;20020;-72
2021/12/22 02:05:55;;;;;;;32.55;19.00;;;1.30;99.90;;;;;;2097948;28;20488;-72
2021/12/22 02:06:55;;;;;;;36.72;20.13;;;1.40;99.90;;;;;;2097966;28;20024;-73
2021/12/22 02:08:00;;;;;;;37.08;19.73;;;1.40;99.90;;;;;;2097447;28;20108;-71
2021/12/22 02:09:01;;;;;;;37.67;21.33;;;1.40;99.90;;;;;;2097294;28;20024;-72
2021/12/22 02:11:08;;;;;;;40.92;22.20;;;1.40;99.90;;;;;;2097378;28;20411;-72
2021/12/22 02:12:11;;;;;;;40.42;22.73;;;1.40;99.90;;;;;;2088930;28;20029;-72
2021/12/22 02:13:16;;;;;;;40.47;21.80;;;1.40;99.90;;;;;;2089507;28;20502;-71
2021/12/22 02:14:17;;;;;;;38.25;21.17;;;1.40;99.90;;;;;;2097102;28;20039;-72
2021/12/22 02:15:18;;;;;;;39.50;21.80;;;1.40;99.90;;;;;;2097301;28;20302;-72
2021/12/22 02:16:25;;;;;;;40.13;22.02;;;1.40;99.90;;;;;;2097599;28;20028;-71
2021/12/22 02:17:27;;;;;;;38.28;21.15;;;1.40;99.90;;;;;;2097598;28;20038;-71
2021/12/22 02:18:31;;;;;;;43.80;22.17;;;1.40;99.90;;;;;;2097092;28;20031;-72
2021/12/22 02:19:42;;;;;;;40.38;22.27;;;1.40;99.90;;;;;;2096615;28;20031;-73
2021/12/22 02:20:44;;;;;;;39.05;22.00;;;1.40;99.90;;;;;;2097481;28;20032;-72
2021/12/22 02:21:51;;;;;;;41.63;22.60;;;1.40;99.90;;;;;;2097258;28;20037;-72
2021/12/22 02:22:54;;;;;;;40.20;21.92;;;1.40;99.90;;;;;;2097751;28;20484;-72
2021/12/22 02:23:55;;;;;;;40.15;21.65;;;1.40;99.90;;;;;;2097590;28;20066;-72
2021/12/22 02:25:01;;;;;;;38.85;22.05;;;1.40;99.90;;;;;;2097475;28;20491;-72
2021/12/22 02:26:10;;;;;;;40.55;22.25;;;1.40;99.90;;;;;;2088434;28;20041;-72
2021/12/22 02:27:20;;;;;;;42.03;22.55;;;1.40;99.90;;;;;;2089893;28;20115;-71
2021/12/22 02:28:25;;;;;;;40.45;22.48;;;1.40;99.90;;;;;;2096393;28;20157;-71
2021/12/22 02:29:35;;;;;;;39.80;22.20;;;1.40;99.90;;;;;;2097256;28;20033;-72
2021/12/22 02:30:36;;;;;;;44.60;22.90;;;1.30;99.90;;;;;;2097712;28;20348;-72
2021/12/22 02:31:44;;;;;;;39.00;22.05;;;1.30;99.90;;;;;;2097469;28;20035;-73
2021/12/22 02:33:57;;;;;;;44.08;23.15;;;1.30;99.90;;;;;;2097333;28;20515;-72
2021/12/22 02:35:02;;;;;;;43.38;23.23;;;1.40;99.90;;;;;;2097533;28;20723;-72
2021/12/22 02:37:11;;;;;;;45.20;24.75;;;1.40;99.90;;;;;;2096927;28;20033;-72
2021/12/22 02:38:16;;;;;;;45.15;24.30;;;1.40;99.90;;;;;;2097020;28;20028;-73
2021/12/22 02:39:17;;;;;;;43.75;24.05;;;1.40;99.90;;;;;;2096756;28;20031;-73
2021/12/22 02:40:24;;;;;;;45.60;24.13;;;1.40;99.90;;;;;;2096783;28;20055;-71
2021/12/22 02:41:29;;;;;;;41.88;23.33;;;1.40;99.90;;;;;;2096201;28;20493;-71
2021/12/22 02:42:32;;;;;;;43.80;23.80;;;1.40;99.90;;;;;;2096639;28;20036;-72
2021/12/22 02:43:34;;;;;;;42.78;23.60;;;1.40;99.90;;;;;;2097347;28;20028;-72
2021/12/22 02:44:35;;;;;;;44.05;23.60;;;1.40;99.90;;;;;;2097302;28;20024;-72
2021/12/22 02:45:39;;;;;;;43.75;23.70;;;1.40;99.90;;;;;;2097251;28;20020;-72
2021/12/22 02:46:39;;;;;;;42.33;23.85;;;1.40;99.90;;;;;;2096872;28;20036;-72
2021/12/22 02:47:41;;;;;;;44.40;23.55;;;1.40;99.90;;;;;;2096758;28;20040;-72
2021/12/22 02:48:42;;;;;;;44.95;23.20;;;1.40;99.90;;;;;;2097283;28;20052;-72
2021/12/22 02:49:43;;;;;;;42.28;23.60;;;1.40;99.90;;;;;;2096704;28;20412;-72
2021/12/22 02:50:44;;;;;;;43.85;24.45;;;1.40;99.90;;;;;;2096463;28;20036;-72
2021/12/22 02:51:45;;;;;;;43.45;23.75;;;1.40;99.90;;;;;;2097969;28;20036;-72
2021/12/22 02:53:01;;;;;;;43.38;23.80;;;1.40;99.90;;;;;;2098455;28;20063;-71
2021/12/22 02:54:13;;;;;;;41.38;23.05;;;1.40;99.90;;;;;;2097870;28;20479;-70
2021/12/22 02:55:14;;;;;;;44.17;23.35;;;1.40;99.90;;;;;;2097140;28;20050;-71
2021/12/22 02:57:28;;;;;;;42.70;23.20;;;1.30;99.90;;;;;;2096690;28;20665;-71
2021/12/22 02:58:40;;;;;;;40.25;23.77;;;1.30;99.90;;;;;;2096514;28;20025;-71
2021/12/22 03:00:03;;;;;;;43.50;23.10;;;1.30;99.90;;;;;;2097287;28;20060;-70
2021/12/22 03:04:34;;;;;;;44.38;23.40;;;1.40;99.90;;;;;;2097200;28;20064;-71
2021/12/22 03:05:36;;;;;;;43.17;23.27;;;1.40;99.90;;;;;;2097217;28;20028;-71
2021/12/22 03:07:09;;;;;;;47.22;24.98;;;1.40;99.90;;;;;;2096899;28;20095;-71
2021/12/22 03:08:10;;;;;;;44.08;23.50;;;1.40;99.90;;;;;;2096585;28;20158;-70
2021/12/22 03:09:16;;;;;;;42.25;23.35;;;1.40;99.90;;;;;;2096606;28;20488;-70
2021/12/22 03:10:19;;;;;;;42.15;23.00;;;1.40;99.90;;;;;;2096538;28;20070;-70
2021/12/22 03:11:20;;;;;;;39.08;22.02;;;1.40;99.90;;;;;;2097043;28;20036;-71
2021/12/22 03:12:22;;;;;;;42.53;22.85;;;1.30;99.90;;;;;;2096679;28;20074;-70
2021/12/22 03:13:24;;;;;;;40.63;22.55;;;1.40;99.90;;;;;;2096064;28;20024;-70
2021/12/22 03:14:25;;;;;;;42.55;23.17;;;1.40;99.90;;;;;;2087937;28;20100;-71
2021/12/22 03:15:26;;;;;;;45.15;22.77;;;1.40;99.90;;;;;;2096262;28;20035;-71
2021/12/22 03:16:27;;;;;;;46.05;23.25;;;1.40;99.90;;;;;;2096781;28;20036;-70
2021/12/22 03:17:27;;;;;;;42.78;22.10;;;1.40;99.90;;;;;;2097022;28;20560;-70
2021/12/22 03:18:28;;;;;;;41.83;22.17;;;1.40;99.90;;;;;;2095822;28;20033;-71
2021/12/22 03:19:31;;;;;;;43.97;22.33;;;1.40;99.90;;;;;;2096373;28;20770;-70
2021/12/22 03:20:32;;;;;;;51.92;23.35;;;1.40;99.90;;;;;;2097089;28;20492;-70
2021/12/22 03:21:33;;;;;;;49.92;23.15;;;1.40;99.90;;;;;;2096289;28;20017;-71
2021/12/22 03:22:35;;;;;;;46.15;23.23;;;1.40;99.90;;;;;;2096339;28;20078;-71
2021/12/22 03:23:35;;;;;;;48.15;23.48;;;1.40;99.90;;;;;;2096173;28;20036;-71
2021/12/22 03:24:38;;;;;;;49.05;23.73;;;1.40;99.90;;;;;;2096263;28;20028;-71
2021/12/22 03:25:39;;;;;;;45.58;23.25;;;1.40;99.90;;;;;;2096278;28;20111;-71
2021/12/22 03:26:44;;;;;;;49.05;23.52;;;1.40;99.90;;;;;;2096110;28;20031;-70
2021/12/22 03:27:48;;;;;;;44.80;22.10;;;1.40;99.90;;;;;;2095840;28;20605;-70
2021/12/22 03:28:50;;;;;;;45.20;22.70;;;1.40;99.90;;;;;;2097151;28;20033;-71
2021/12/22 03:29:51;;;;;;;43.28;22.55;;;1.40;99.90;;;;;;2088210;28;20025;-70
2021/12/22 03:30:53;;;;;;;39.30;21.88;;;1.40;99.90;;;;;;2087999;28;20103;-70
2021/12/22 03:31:54;;;;;;;44.53;23.08;;;1.40;99.90;;;;;;2095872;28;20070;-70
2021/12/22 03:32:55;;;;;;;41.55;22.02;;;1.30;99.90;;;;;;2087972;28;20124;-70
2021/12/22 03:33:56;;;;;;;40.35;22.42;;;1.30;99.90;;;;;;2096451;28;20451;-72
2021/12/22 03:34:56;;;;;;;38.53;21.70;;;1.30;99.90;;;;;;2096377;28;20566;-71
2021/12/22 03:35:57;;;;;;;39.70;21.50;;;1.30;99.90;;;;;;2097107;28;20021;-71
2021/12/22 03:36:57;;;;;;;37.17;21.20;;;1.30;99.90;;;;;;2096949;28;20056;-71
2021/12/22 03:37:59;;;;;;;38.08;20.83;;;1.30;99.90;;;;;;2096530;28;20063;-70
2021/12/22 03:39:00;;;;;;;38.22;20.95;;;1.30;99.90;;;;;;2096962;28;20112;-72
2021/12/22 03:40:00;;;;;;;37.65;21.73;;;1.30;99.90;;;;;;2096997;28;20036;-71
2021/12/22 03:41:03;;;;;;;38.35;20.92;;;1.20;99.90;;;;;;2097001;28;20032;-72
2021/12/22 03:42:06;;;;;;;40.08;21.88;;;1.20;99.90;;;;;;2096453;28;20036;-72
2021/12/22 03:43:07;;;;;;;39.28;21.83;;;1.20;99.90;;;;;;2096771;28;20036;-71
2021/12/22 03:44:08;;;;;;;40.28;22.20;;;1.20;99.90;;;;;;2096689;28;20029;-71
2021/12/22 03:45:09;;;;;;;41.53;22.13;;;1.10;99.90;;;;;;2096847;28;20068;-71
2021/12/22 03:46:10;;;;;;;41.70;21.95;;;1.10;99.90;;;;;;2096873;28;20041;-70
2021/12/22 03:47:11;;;;;;;40.15;22.20;;;1.10;99.90;;;;;;2096185;28;20044;-71
2021/12/22 03:48:12;;;;;;;40.90;22.20;;;1.00;99.90;;;;;;2095660;28;20029;-72
2021/12/22 03:49:14;;;;;;;39.97;21.85;;;1.00;99.90;;;;;;2096466;28;20044;-71
2021/12/22 03:50:16;;;;;;;38.85;21.17;;;1.00;99.90;;;;;;2096260;28;20036;-71
2021/12/22 03:51:16;;;;;;;39.08;21.75;;;1.00;99.90;;;;;;2096931;28;20048;-71
2021/12/22 03:52:17;;;;;;;40.42;21.88;;;1.00;99.90;;;;;;2096697;28;20025;-71
2021/12/22 03:53:18;;;;;;;40.80;22.33;;;0.90;99.90;;;;;;2096289;28;20184;-71
2021/12/22 03:54:18;;;;;;;39.70;21.08;;;0.90;99.90;;;;;;2096363;28;20028;-71
2021/12/22 03:55:19;;;;;;;41.38;21.70;;;0.90;99.90;;;;;;2097172;28;20082;-73
2021/12/22 03:56:20;;;;;;;41.25;21.73;;;0.80;99.90;;;;;;2096736;28;20017;-71
2021/12/22 03:57:21;;;;;;;39.08;21.35;;;0.80;99.90;;;;;;2097073;28;20032;-70
2021/12/22 03:58:23;;;;;;;39.67;21.70;;;0.80;99.90;;;;;;2096508;28;20036;-73
2021/12/22 03:59:24;;;;;;;45.55;22.05;;;0.80;99.90;;;;;;2096332;28;20094;-71
2021/12/22 04:00:25;;;;;;;44.20;22.77;;;0.80;99.90;;;;;;2096219;28;20088;-71
2021/12/22 04:01:26;;;;;;;41.80;22.13;;;0.70;99.90;;;;;;2096576;28;20427;-71
2021/12/22 04:02:28;;;;;;;41.78;21.90;;;0.70;99.90;;;;;;2097955;28;20100;-71
2021/12/22 04:03:32;;;;;;;43.67;22.40;;;0.70;99.90;;;;;;2098279;28;20036;-70
2021/12/22 04:04:33;;;;;;;42.67;22.30;;;0.70;99.90;;;;;;2098288;28;20058;-71
2021/12/22 04:05:36;;;;;;;41.75;22.00;;;0.70;99.90;;;;;;2098174;28;20028;-71
2021/12/22 04:06:38;;;;;;;40.47;21.90;;;0.70;99.90;;;;;;2098251;28;20024;-70
2021/12/22 04:07:39;;;;;;;42.83;22.13;;;0.70;99.90;;;;;;2097952;28;20048;-71
2021/12/22 04:08:39;;;;;;;42.67;22.30;;;0.70;99.90;;;;;;2098358;28;20029;-72
2021/12/22 04:09:40;;;;;;;44.45;23.23;;;0.60;99.90;;;;;;2097639;28;20078;-71
2021/12/22 04:10:41;;;;;;;44.10;22.45;;;0.60;99.90;;;;;;2097799;28;20380;-72
2021/12/22 04:11:42;;;;;;;40.50;22.27;;;0.60;99.90;;;;;;2098246;28;20024;-71
2021/12/22 04:12:43;;;;;;;42.40;22.17;;;0.50;99.90;;;;;;2098434;28;20036;-70
2021/12/22 04:13:44;;;;;;;45.08;22.73;;;0.50;99.90;;;;;;2098304;28;20032;-70
2021/12/22 04:14:44;;;;;;;42.33;21.85;;;0.50;99.90;;;;;;2097546;28;20025;-71
2021/12/22 04:15:45;;;;;;;40.85;21.55;;;0.40;99.90;;;;;;2097655;28;20024;-70
2021/12/22 04:16:46;;;;;;;42.15;22.08;;;0.40;99.90;;;;;;2097587;28;20036;-71
2021/12/22 04:17:47;;;;;;;41.55;21.50;;;0.30;99.90;;;;;;2097375;28;20479;-72
2021/12/22 04:18:47;;;;;;;40.75;21.83;;;0.30;99.90;;;;;;2098297;28;20031;-71
2021/12/22 04:19:48;;;;;;;42.75;22.27;;;0.30;99.90;;;;;;2097988;28;20472;-71
2021/12/22 04:20:49;;;;;;;43.00;22.63;;;0.30;99.90;;;;;;2098212;28;20032;-71
2021/12/22 04:21:50;;;;;;;43.22;22.33;;;0.20;99.90;;;;;;2097935;28;20056;-71
2021/12/22 04:22:51;;;;;;;43.50;22.67;;;0.20;99.90;;;;;;2098291;28;20056;-71
2021/12/22 04:23:51;;;;;;;45.47;23.02;;;0.20;99.90;;;;;;2098050;28;20096;-71
2021/12/22 04:24:52;;;;;;;48.10;23.88;;;0.20;99.90;;;;;;2098214;28;20047;-71
2021/12/22 04:25:53;;;;;;;50.60;24.13;;;0.10;99.90;;;;;;2098286;28;20078;-71
2021/12/22 04:26:53;;;;;;;51.90;24.75;;;0.10;99.90;;;;;;2098298;28;20032;-71
2021/12/22 04:28:02;;;;;;;54.25;25.30;;;0.10;99.90;;;;;;2097781;28;20116;-71
2021/12/22 04:29:03;;;;;;;50.28;24.30;;;0.10;99.90;;;;;;2097488;28;20036;-70
2021/12/22 04:30:05;;;;;;;49.95;23.77;;;0.00;99.90;;;;;;2097931;28;20026;-71
2021/12/22 04:31:06;;;;;;;51.22;23.90;;;0.00;99.90;;;;;;2098147;28;20028;-71
2021/12/22 04:32:07;;;;;;;51.50;24.75;;;0.00;99.90;;;;;;2097822;28;20120;-71
2021/12/22 04:33:08;;;;;;;50.78;25.23;;;0.00;99.90;;;;;;2098098;28;20070;-70
2021/12/22 04:34:09;;;;;;;50.75;25.33;;;0.00;99.90;;;;;;2098129;28;20067;-70
2021/12/22 04:35:10;;;;;;;52.30;25.20;;;0.00;99.90;;;;;;2097438;28;20107;-70
2021/12/22 04:36:10;;;;;;;53.67;25.25;;;-0.10;99.90;;;;;;2089434;28;20039;-71
2021/12/22 04:37:11;;;;;;;47.67;24.48;;;-0.10;99.90;;;;;;2089265;28;20033;-70
2021/12/22 04:38:12;;;;;;;46.60;23.27;;;-0.10;99.90;;;;;;2088977;28;20075;-71
2021/12/22 04:39:12;;;;;;;47.80;23.88;;;-0.10;99.90;;;;;;2098215;28;20028;-70
2021/12/22 04:40:16;;;;;;;42.83;22.33;;;-0.10;99.90;;;;;;2098118;28;20115;-70
2021/12/22 04:41:17;;;;;;;46.13;22.67;;;-0.10;99.90;;;;;;2098096;28;20047;-70
2021/12/22 04:42:20;;;;;;;47.47;22.98;;;-0.10;99.90;;;;;;2098380;28;20066;-70
2021/12/22 04:43:20;;;;;;;46.25;23.20;;;-0.10;99.90;;;;;;2098400;28;20443;-70
2021/12/22 04:44:21;;;;;;;42.88;22.55;;;-0.20;99.90;;;;;;2097855;28;20028;-70
2021/12/22 04:45:22;;;;;;;44.60;23.00;;;-0.20;99.90;;;;;;2097269;28;20024;-70
2021/12/22 04:46:23;;;;;;;46.95;23.95;;;-0.20;99.90;;;;;;2097476;28;20139;-70
2021/12/22 04:47:24;;;;;;;44.08;23.58;;;-0.20;99.90;;;;;;2097316;28;20099;-70
2021/12/22 04:48:25;;;;;;;42.22;21.98;;;-0.20;99.90;;;;;;2096990;28;20598;-70
2021/12/22 04:49:26;;;;;;;43.92;22.95;;;-0.20;99.90;;;;;;2097189;28;20024;-70
2021/12/22 04:50:27;;;;;;;48.10;24.02;;;-0.30;99.90;;;;;;2088945;28;20147;-70
2021/12/22 04:51:30;;;;;;;48.47;24.13;;;-0.30;99.90;;;;;;2097124;28;20390;-71
2021/12/22 04:52:39;;;;;;;46.47;24.27;;;-0.30;99.90;;;;;;2097935;28;20024;-70
2021/12/22 04:53:51;;;;;;;50.10;24.02;;;-0.30;99.90;;;;;;2097338;28;20021;-71
2021/12/22 04:55:03;;;;;;;45.60;23.80;;;-0.30;99.90;;;;;;2097508;28;20024;-70
2021/12/22 04:56:04;;;;;;;48.42;24.45;;;-0.40;99.90;;;;;;2097348;28;20028;-69
2021/12/22 04:57:05;;;;;;;51.10;25.40;;;-0.40;99.90;;;;;;2097128;28;20435;-71
2021/12/22 04:58:06;;;;;;;48.53;24.73;;;-0.40;99.90;;;;;;2097551;28;20056;-71
2021/12/22 04:59:07;;;;;;;49.90;25.33;;;-0.40;99.90;;;;;;2097834;28;20029;-71
2021/12/22 05:00:10;;;;;;;46.92;24.40;;;-0.40;99.90;;;;;;2097973;28;20082;-71
2021/12/22 05:01:10;;;;;;;48.05;24.80;;;-0.50;99.90;;;;;;2097212;28;20040;-72
2021/12/22 05:02:11;;;;;;;46.65;24.15;;;-0.50;99.90;;;;;;2097011;28;20747;-72
2021/12/22 05:03:12;;;;;;;52.20;25.58;;;-0.50;99.90;;;;;;2097619;28;20044;-71
2021/12/22 05:04:12;;;;;;;50.20;24.83;;;-0.50;99.90;;;;;;2097737;28;20067;-70
2021/12/22 05:05:13;;;;;;;47.92;24.48;;;-0.50;99.90;;;;;;2097749;28;20062;-71
2021/12/22 05:06:13;;;;;;;49.08;24.85;;;-0.50;99.90;;;;;;2097147;28;20037;-71
2021/12/22 05:07:14;;;;;;;52.97;26.38;;;-0.50;99.90;;;;;;2097226;28;20450;-71
2021/12/22 05:08:16;;;;;;;51.50;26.25;;;-0.60;99.90;;;;;;2097453;28;20028;-71
2021/12/22 05:09:16;;;;;;;51.90;25.60;;;-0.50;99.90;;;;;;2097797;28;20107;-72
2021/12/22 05:10:18;;;;;;;48.55;24.90;;;-0.50;99.90;;;;;;2097879;28;20032;-72
2021/12/22 05:11:19;;;;;;;49.53;24.67;;;-0.60;99.90;;;;;;2097918;28;20045;-71
2021/12/22 05:12:19;;;;;;;45.95;24.40;;;-0.50;99.90;;;;;;2096929;28;20031;-72
2021/12/22 05:13:20;;;;;;;48.90;24.80;;;-0.60;99.90;;;;;;2096799;28;20095;-72
2021/12/22 05:14:20;;;;;;;51.20;25.88;;;-0.60;99.90;;;;;;2097215;28;20071;-70
2021/12/22 05:15:23;;;;;;;52.88;26.10;;;-0.50;99.90;;;;;;2097690;28;20060;-72
2021/12/22 05:16:24;;;;;;;52.00;26.10;;;-0.50;99.90;;;;;;2097782;28;20024;-71
2021/12/22 05:17:38;;;;;;;48.25;24.75;;;-0.60;99.90;;;;;;2097573;28;20085;-71
2021/12/22 05:19:54;;;;;;;49.38;23.75;;;-0.60;99.90;;;;;;2097758;28;20384;-71
2021/12/22 05:20:55;;;;;;;52.72;24.98;;;-0.60;99.90;;;;;;2097122;28;20056;-73
2021/12/22 05:21:56;;;;;;;48.35;24.05;;;-0.60;99.90;;;;;;2096642;28;20028;-71
2021/12/22 05:22:57;;;;;;;47.10;24.33;;;-0.60;99.90;;;;;;2097238;28;20127;-70
2021/12/22 05:23:57;;;;;;;49.80;24.40;;;-0.60;99.90;;;;;;2096962;28;20039;-70
2021/12/22 05:24:59;;;;;;;50.70;25.30;;;-0.60;99.90;;;;;;2097743;28;20040;-70
2021/12/22 05:25:59;;;;;;;47.45;25.02;;;-0.60;99.90;;;;;;2097009;28;20438;-70
2021/12/22 05:27:00;;;;;;;49.08;25.50;;;-0.70;99.90;;;;;;2097891;28;20102;-71
2021/12/22 05:28:01;;;;;;;49.67;25.77;;;-0.70;99.90;;;;;;2098615;28;20111;-71
2021/12/22 05:29:02;;;;;;;49.78;25.95;;;-0.70;99.90;;;;;;2099439;28;20392;-71
2021/12/22 05:30:05;;;;;;;51.95;25.58;;;-0.70;99.90;;;;;;2098967;28;20474;-71
2021/12/22 05:31:06;;;;;;;52.33;26.20;;;-0.70;99.90;;;;;;2097823;28;20790;-71
2021/12/22 05:32:07;;;;;;;52.13;26.30;;;-0.70;99.90;;;;;;2097327;28;20145;-70